createdAt,value
2022-11-08T00:00:47.414Z,100502.77
2022-11-08T00:03:16.312Z,100505.58
2022-11-08T00:06:03.665Z,100505.81
2022-11-08T00:08:51.315Z,100508.20
2022-11-08T00:11:38.824Z,100510.15
2022-11-08T00:14:07.742Z,100510.33
2022-11-08T00:16:36.519Z,100509.59
2022-11-08T00:19:05.271Z,100513.60
2022-11-08T00:21:35.254Z,100513.77
2022-11-08T00:24:04.209Z,100515.67
2022-11-08T00:26:33.020Z,100516.06
2022-11-08T00:29:02.265Z,100516.19
2022-11-08T00:31:31.159Z,100514.98
2022-11-08T00:33:59.944Z,100513.88
2022-11-08T00:36:28.726Z,100515.12
2022-11-08T00:38:57.536Z,100512.63
2022-11-08T00:41:26.428Z,100516.69
2022-11-08T00:43:55.241Z,100516.48
2022-11-08T00:46:24.021Z,100517.75
2022-11-08T00:48:52.820Z,100515.90
2022-11-08T00:51:21.695Z,100515.80
2022-11-08T00:53:50.697Z,100517.40
2022-11-08T00:56:19.604Z,100521.64
2022-11-08T00:58:48.385Z,100520.09
2022-11-08T01:01:21.764Z,100516.16
2022-11-08T01:03:51.261Z,100514.71
2022-11-08T01:06:22.990Z,100511.34
2022-11-08T01:08:52.519Z,100512.49
2022-11-08T01:11:24.439Z,100510.34
2022-11-08T01:13:57.690Z,100506.46
2022-11-08T01:16:32.677Z,100509.42
2022-11-08T01:19:02.489Z,100508.31
2022-11-08T01:21:31.490Z,100509.42
2022-11-08T01:24:00.683Z,100511.11
2022-11-08T01:26:30.223Z,100507.99
2022-11-08T01:28:59.402Z,100507.19
2022-11-08T01:31:33.038Z,100503.61
2022-11-08T01:34:01.848Z,100502.55
2022-11-08T01:36:30.728Z,100504.36
2022-11-08T01:38:59.567Z,100506.87
2022-11-08T01:41:28.640Z,100507.29
2022-11-08T01:43:59.995Z,100506.91
2022-11-08T01:46:44.427Z,100507.00
2022-11-08T01:49:39.101Z,100503.95
2022-11-08T01:52:39.620Z,100500.34
2022-11-08T01:55:30.576Z,100497.48
2022-11-08T01:58:09.238Z,100498.55
2022-11-08T02:00:39.698Z,100495.02
2022-11-08T02:03:14.071Z,100491.51
2022-11-08T02:05:46.535Z,100488.02
2022-11-08T02:08:42.388Z,100492.23
2022-11-08T02:11:16.229Z,100491.95
2022-11-08T02:13:45.446Z,100488.52
2022-11-08T02:16:16.665Z,100487.05
2022-11-08T02:18:48.652Z,100487.70
2022-11-08T02:21:48.889Z,100489.10
2022-11-08T02:24:18.193Z,100486.11
2022-11-08T02:26:50.237Z,100484.03
2022-11-08T02:29:35.408Z,100483.48
2022-11-08T02:32:06.516Z,100481.43
2022-11-08T02:34:55.564Z,100480.59
2022-11-08T02:37:27.297Z,100480.46
2022-11-08T02:39:56.285Z,100481.05
2022-11-08T02:42:25.559Z,100480.33
2022-11-08T02:44:54.388Z,100480.47
2022-11-08T02:47:25.635Z,100480.08
2022-11-08T02:49:54.410Z,100479.33
2022-11-08T02:52:23.279Z,100483.27
2022-11-08T02:54:52.074Z,100477.33
2022-11-08T02:57:20.838Z,100477.30
2022-11-08T02:59:49.648Z,100479.84
2022-11-08T03:02:18.758Z,100481.02
2022-11-08T03:04:47.699Z,100480.59
2022-11-08T03:07:20.772Z,100481.80
2022-11-08T03:09:52.646Z,100481.23
2022-11-08T03:12:21.546Z,100481.11
2022-11-08T03:14:50.603Z,100484.48
2022-11-08T03:17:19.487Z,100485.94
2022-11-08T03:19:48.304Z,100490.86
2022-11-08T03:22:17.197Z,100494.59
2022-11-08T03:24:45.920Z,100495.22
2022-11-08T03:27:15.456Z,100494.20
2022-11-08T03:29:44.262Z,100494.84
2022-11-08T03:32:14.412Z,100501.17
2022-11-08T03:34:43.520Z,100499.48
2022-11-08T03:37:12.339Z,100500.97
2022-11-08T03:39:41.093Z,100499.77
2022-11-08T03:42:10.438Z,100500.99
2022-11-08T03:44:40.336Z,100505.84
2022-11-08T03:47:09.667Z,100510.04
2022-11-08T03:49:39.355Z,100511.14
2022-11-08T03:52:08.250Z,100513.36
2022-11-08T03:54:37.103Z,100512.44
2022-11-08T03:57:06.729Z,100514.45
2022-11-08T03:59:35.841Z,100514.22
2022-11-08T04:02:04.824Z,100515.30
2022-11-08T04:04:35.197Z,100514.48
2022-11-08T04:07:03.974Z,100514.70
2022-11-08T04:09:32.800Z,100512.54
2022-11-08T04:12:20.358Z,100512.83
2022-11-08T04:15:08.221Z,100514.65
2022-11-08T04:17:55.531Z,100513.52
2022-11-08T04:20:42.827Z,100511.90
2022-11-08T04:23:12.054Z,100507.05
2022-11-08T04:25:41.061Z,100509.90
2022-11-08T04:28:10.201Z,100510.17
2022-11-08T04:30:39.074Z,100508.04
2022-11-08T04:33:07.866Z,100506.28
2022-11-08T04:35:36.704Z,100505.84
2022-11-08T04:38:05.523Z,100503.98
2022-11-08T04:40:34.481Z,100504.88
2022-11-08T04:43:03.335Z,100500.56
2022-11-08T04:45:32.167Z,100497.48
2022-11-08T04:48:01.104Z,100496.21
2022-11-08T04:50:30.505Z,100497.39
2022-11-08T04:52:59.499Z,100495.76
2022-11-08T04:55:28.431Z,100494.95
2022-11-08T04:57:59.259Z,100500.27
2022-11-08T05:00:28.216Z,100502.15
2022-11-08T05:02:56.994Z,100498.73
2022-11-08T05:05:25.818Z,100501.41
2022-11-08T05:07:55.309Z,100498.57
2022-11-08T05:10:24.102Z,100499.88
2022-11-08T05:12:57.132Z,100497.56
2022-11-08T05:15:26.174Z,100492.97
2022-11-08T05:17:55.195Z,100489.60
2022-11-08T05:20:42.695Z,100486.45
2022-11-08T05:23:26.734Z,100488.63
2022-11-08T05:25:57.816Z,100487.98
2022-11-08T05:28:26.664Z,100487.08
2022-11-08T05:30:56.642Z,100485.84
2022-11-08T05:33:26.262Z,100487.73
2022-11-08T05:35:55.144Z,100488.95
2022-11-08T05:38:24.077Z,100491.41
2022-11-08T05:40:53.002Z,100491.06
2022-11-08T05:43:21.824Z,100492.79
2022-11-08T05:45:50.631Z,100494.58
2022-11-08T05:48:19.600Z,100493.08
2022-11-08T05:50:49.293Z,100495.08
2022-11-08T05:53:18.621Z,100498.87
2022-11-08T05:55:49.087Z,100499.55
2022-11-08T05:58:17.965Z,100503.65
2022-11-08T06:00:46.766Z,100505.42
2022-11-08T06:03:19.705Z,100505.44
2022-11-08T06:05:51.435Z,100507.34
2022-11-08T06:08:20.432Z,100508.77
2022-11-08T06:10:49.313Z,100509.41
2022-11-08T06:13:18.083Z,100510.03
2022-11-08T06:15:46.893Z,100509.46
2022-11-08T06:18:15.734Z,100513.75
2022-11-08T06:20:44.620Z,100514.05
2022-11-08T06:23:13.373Z,100514.15
2022-11-08T06:25:47.301Z,100510.52
2022-11-08T06:28:16.403Z,100512.23
2022-11-08T06:30:45.332Z,100515.36
2022-11-08T06:33:14.231Z,100521.30
2022-11-08T06:35:45.288Z,100524.42
2022-11-08T06:38:14.139Z,100529.38
2022-11-08T06:40:43.148Z,100531.50
2022-11-08T06:43:17.973Z,100530.39
2022-11-08T06:50:58.255Z,100526.89
2022-11-08T06:53:27.130Z,100526.30
2022-11-08T06:55:55.953Z,100528.39
2022-11-08T06:58:24.829Z,100531.55
2022-11-08T07:00:53.646Z,100529.77
2022-11-08T07:03:22.686Z,100530.35
2022-11-08T07:05:51.512Z,100526.42
2022-11-08T07:08:23.757Z,100529.27
2022-11-08T07:10:54.070Z,100531.35
2022-11-08T07:13:23.155Z,100533.45
2022-11-08T07:15:51.958Z,100534.66
2022-11-08T07:18:20.891Z,100532.14
2022-11-08T07:20:49.939Z,100530.63
2022-11-08T07:23:20.090Z,100528.89
2022-11-08T07:25:49.222Z,100531.39
2022-11-08T07:28:19.690Z,100535.09
2022-11-08T07:30:49.818Z,100536.89
2022-11-08T07:33:19.064Z,100535.88
2022-11-08T07:35:48.109Z,100538.67
2022-11-08T07:38:16.917Z,100537.88
2022-11-08T07:40:45.802Z,100538.33
2022-11-08T07:43:16.697Z,100538.59
2022-11-08T07:45:45.940Z,100542.14
2022-11-08T07:48:14.876Z,100544.02
2022-11-08T07:50:43.933Z,100543.76
2022-11-08T07:53:12.986Z,100541.60
2022-11-08T07:55:42.388Z,100541.20
2022-11-08T07:58:12.026Z,100542.02
2022-11-08T08:00:43.331Z,100547.23
2022-11-08T08:03:14.783Z,100546.47
2022-11-08T08:05:45.830Z,100546.78
2022-11-08T08:08:14.724Z,100544.25
2022-11-08T08:10:45.894Z,100542.32
2022-11-08T08:13:15.994Z,100539.88
2022-11-08T08:15:45.212Z,100540.91
2022-11-08T08:18:14.181Z,100537.34
2022-11-08T08:20:43.331Z,100537.83
2022-11-08T08:23:12.240Z,100540.35
2022-11-08T08:25:41.300Z,100537.91
2022-11-08T08:28:11.404Z,100534.74
2022-11-08T08:30:41.139Z,100539.45
2022-11-08T08:33:32.444Z,100539.49
2022-11-08T08:36:02.146Z,100538.60
2022-11-08T08:38:33.461Z,100544.08
2022-11-08T08:41:03.748Z,100541.66
2022-11-08T08:43:32.816Z,100535.42
2022-11-08T08:46:05.077Z,100535.86
2022-11-08T08:48:36.647Z,100535.84
2022-11-08T08:51:07.459Z,100535.98
2022-11-08T08:53:40.176Z,100533.30
2022-11-08T08:56:10.754Z,100535.25
2022-11-08T08:58:40.502Z,100530.37
2022-11-08T09:04:04.896Z,100525.88
2022-11-08T09:06:34.655Z,100523.54
2022-11-08T09:09:04.718Z,100527.77
2022-11-08T09:11:34.151Z,100528.75
2022-11-08T09:14:05.982Z,100533.46
2022-11-08T09:16:36.489Z,100535.00
2022-11-08T09:19:05.841Z,100536.62
2022-11-08T09:21:35.046Z,100532.59
2022-11-08T09:24:04.330Z,100533.95
2022-11-08T09:26:33.587Z,100533.23
2022-11-08T09:29:02.739Z,100530.92
2022-11-08T09:31:32.154Z,100531.09
2022-11-08T09:36:34.345Z,100539.61
2022-11-08T09:39:04.299Z,100536.56
2022-11-08T09:42:10.336Z,100538.13
2022-11-08T09:45:20.965Z,100532.85
2022-11-08T09:48:00.168Z,100530.73
2022-11-08T09:50:47.723Z,100529.48
2022-11-08T09:53:31.774Z,100524.69
2022-11-08T09:56:16.113Z,100517.66
2022-11-08T09:59:02.385Z,100516.42
2022-11-08T10:01:35.490Z,100518.56
2022-11-08T10:04:22.389Z,100517.03
2022-11-08T10:07:41.540Z,100515.83
2022-11-08T10:10:38.280Z,100514.52
2022-11-08T10:13:21.111Z,100513.84
2022-11-08T10:16:05.461Z,100511.17
2022-11-08T10:19:01.222Z,100508.67
2022-11-08T10:21:49.396Z,100508.84
2022-11-08T10:24:27.610Z,100509.17
2022-11-08T10:26:59.407Z,100507.29
2022-11-08T10:29:44.186Z,100509.59
2022-11-08T10:32:21.700Z,100502.12
2022-11-08T10:35:32.510Z,100496.90
2022-11-08T10:38:03.421Z,100489.25
2022-11-08T10:40:47.542Z,100485.02
2022-11-08T10:43:29.215Z,100485.47
2022-11-08T10:45:58.049Z,100483.15
2022-11-08T10:48:28.517Z,100477.00
2022-11-08T10:50:57.400Z,100468.47
2022-11-08T10:53:29.498Z,100463.89
2022-11-08T10:56:06.344Z,100459.15
2022-11-08T10:58:44.059Z,100456.80
2022-11-08T11:01:24.469Z,100460.39
2022-11-08T11:03:53.814Z,100457.55
2022-11-08T11:06:32.821Z,100454.47
2022-11-08T11:09:19.294Z,100447.27
2022-11-08T11:11:59.038Z,100445.34
2022-11-08T11:14:27.879Z,100444.67
2022-11-08T11:17:16.879Z,100440.77
2022-11-08T11:19:57.556Z,100442.12
2022-11-08T11:22:35.567Z,100445.57
2022-11-08T11:25:18.204Z,100440.64
2022-11-08T11:27:58.876Z,100444.15
2022-11-08T11:30:31.257Z,100446.36
2022-11-08T11:33:24.161Z,100445.09
2022-11-08T11:36:14.564Z,100443.10
2022-11-08T11:39:05.185Z,100442.85
2022-11-08T11:41:57.801Z,100444.17
2022-11-08T11:44:41.793Z,100442.11
2022-11-08T11:47:24.883Z,100444.23
2022-11-08T11:49:59.245Z,100443.70
2022-11-08T11:52:28.051Z,100443.33
2022-11-08T11:54:57.171Z,100441.98
2022-11-08T11:57:53.507Z,100441.05
2022-11-08T12:00:22.570Z,100445.53
2022-11-08T12:03:21.814Z,100441.80
2022-11-08T12:06:29.383Z,100438.38
2022-11-08T12:09:35.470Z,100436.87
2022-11-08T12:12:41.975Z,100432.83
2022-11-08T12:15:23.998Z,100427.53
2022-11-08T12:18:37.002Z,100428.05
2022-11-08T12:21:15.263Z,100422.69
2022-11-08T12:24:37.863Z,100416.70
2022-11-08T12:27:15.604Z,100414.60
2022-11-08T12:30:15.897Z,100414.37
2022-11-08T12:33:12.286Z,100412.90
2022-11-08T12:36:16.527Z,100412.74
2022-11-08T12:38:54.553Z,100414.33
2022-11-08T12:42:34.803Z,100414.35
2022-11-08T12:45:57.730Z,100405.46
2022-11-08T12:48:52.663Z,100404.77
2022-11-08T12:52:01.742Z,100403.02
2022-11-08T12:54:44.199Z,100401.51
2022-11-08T12:57:17.756Z,100405.44
2022-11-08T13:00:08.746Z,100399.17
2022-11-08T13:02:39.756Z,100398.73
2022-11-08T13:05:14.432Z,100397.80
2022-11-08T13:08:04.813Z,100404.35
2022-11-08T13:10:58.747Z,100403.00
2022-11-08T13:13:46.115Z,100398.88
2022-11-08T13:16:24.934Z,100400.52
2022-11-08T13:18:55.891Z,100396.47
2022-11-08T13:21:27.807Z,100393.05
2022-11-08T13:24:09.847Z,100391.86
2022-11-08T13:26:53.748Z,100395.30
2022-11-08T13:29:27.575Z,100394.59
2022-11-08T13:32:25.230Z,100397.31
2022-11-08T13:35:09.337Z,100391.86
2022-11-08T13:38:05.991Z,100386.70
2022-11-08T13:40:44.753Z,100382.46
2022-11-08T13:43:26.215Z,100381.11
2022-11-08T13:45:56.056Z,100376.36
2022-11-08T13:48:25.281Z,100373.33
2022-11-08T13:51:31.212Z,100376.14
2022-11-08T13:54:02.777Z,100372.45
2022-11-08T13:56:48.201Z,100371.16
2022-11-08T13:59:32.219Z,100371.02
2022-11-08T14:02:21.393Z,100374.50
2022-11-08T14:04:50.367Z,100368.96
2022-11-08T14:07:46.615Z,100363.58
2022-11-08T14:10:35.637Z,100366.52
2022-11-08T14:13:21.148Z,100364.38
2022-11-08T14:16:03.899Z,100365.83
2022-11-08T14:18:35.848Z,100365.25
2022-11-08T14:21:05.716Z,100365.09
2022-11-08T14:23:39.956Z,100363.55
2022-11-08T14:26:23.704Z,100358.94
2022-11-08T14:28:53.878Z,100355.05
2022-11-08T14:31:31.399Z,100358.44
2022-11-08T14:34:02.009Z,100353.45
2022-11-08T14:36:32.539Z,100354.73
2022-11-08T14:39:19.176Z,100354.42
2022-11-08T14:41:53.815Z,100355.63
2022-11-08T14:44:23.718Z,100351.84
2022-11-08T14:46:53.389Z,100348.09
2022-11-08T14:49:36.639Z,100349.35
2022-11-08T14:52:19.595Z,100346.63
2022-11-08T14:54:58.464Z,100345.52
2022-11-08T14:57:30.668Z,100344.74
2022-11-08T15:00:05.667Z,100349.87
2022-11-08T15:02:34.845Z,100348.81
2022-11-08T15:05:05.740Z,100348.36
2022-11-08T15:07:34.608Z,100347.50
2022-11-08T15:10:09.849Z,100351.73
2022-11-08T15:12:43.303Z,100351.25
2022-11-08T15:15:32.592Z,100353.34
2022-11-08T15:18:26.410Z,100351.52
2022-11-08T15:21:16.218Z,100351.19
2022-11-08T15:23:53.812Z,100350.17
2022-11-08T15:26:23.890Z,100347.01
2022-11-08T15:29:19.551Z,100344.36
2022-11-08T15:32:04.569Z,100347.42
2022-11-08T15:34:41.315Z,100349.67
2022-11-08T15:37:21.563Z,100349.77
2022-11-08T15:39:51.340Z,100347.98
2022-11-08T15:42:21.399Z,100345.17
2022-11-08T15:45:23.321Z,100343.08
2022-11-08T15:47:54.319Z,100335.50
2022-11-08T15:50:30.612Z,100334.48
2022-11-08T15:53:03.661Z,100333.09
2022-11-08T15:55:39.484Z,100335.52
2022-11-08T15:58:40.216Z,100338.52
2022-11-08T16:01:20.183Z,100342.26
2022-11-08T16:03:49.203Z,100342.04
2022-11-08T16:06:18.406Z,100340.91
2022-11-08T16:08:47.329Z,100336.55
2022-11-08T16:11:23.435Z,100335.64
2022-11-08T16:13:52.328Z,100337.59
2022-11-08T16:16:21.348Z,100337.27
2022-11-08T16:18:50.358Z,100338.11
2022-11-08T16:21:19.185Z,100337.44
2022-11-08T16:23:47.956Z,100335.58
2022-11-08T16:26:20.512Z,100337.38
2022-11-08T16:28:49.361Z,100335.77
2022-11-08T16:31:18.604Z,100338.40
2022-11-08T16:33:47.695Z,100341.05
2022-11-08T16:36:23.448Z,100337.61
2022-11-08T16:38:57.874Z,100339.16
2022-11-08T16:41:26.797Z,100344.02
2022-11-08T16:43:56.544Z,100345.39
2022-11-08T16:46:25.515Z,100343.80
2022-11-08T16:49:00.176Z,100343.41
2022-11-08T16:51:30.644Z,100345.14
2022-11-08T16:54:02.808Z,100343.58
2022-11-08T16:56:31.633Z,100342.70
2022-11-08T16:59:00.547Z,100345.81
2022-11-08T17:01:33.374Z,100349.62
2022-11-08T17:04:02.466Z,100345.02
2022-11-08T17:06:31.302Z,100347.83
2022-11-08T17:09:00.083Z,100349.81
2022-11-08T17:11:28.887Z,100347.98
2022-11-08T17:13:59.086Z,100349.07
2022-11-08T17:16:27.900Z,100347.02
2022-11-08T17:18:57.894Z,100346.73
2022-11-08T17:24:21.235Z,100339.59
2022-11-08T17:26:50.836Z,100340.80
2022-11-08T17:29:20.049Z,100340.21
2022-11-08T17:31:49.738Z,100342.42
2022-11-08T17:34:18.677Z,100347.46
2022-11-08T17:36:47.759Z,100345.38
2022-11-08T17:39:16.780Z,100345.32
2022-11-08T17:41:45.690Z,100343.88
2022-11-08T17:44:14.739Z,100340.88
2022-11-08T17:46:43.809Z,100342.00
2022-11-08T17:49:12.692Z,100340.59
2022-11-08T17:51:41.820Z,100337.60
2022-11-08T17:54:10.637Z,100331.45
2022-11-08T17:56:39.801Z,100327.40
2022-11-08T17:59:08.625Z,100326.31
2022-11-08T18:01:37.948Z,100329.27
2022-11-08T18:04:07.194Z,100328.09
2022-11-08T18:06:36.302Z,100331.05
2022-11-08T18:09:07.394Z,100333.59
2022-11-08T18:11:36.775Z,100333.73
2022-11-08T18:14:05.692Z,100331.48
2022-11-08T18:16:34.601Z,100331.11
2022-11-08T18:19:03.396Z,100328.19
2022-11-08T18:21:32.967Z,100327.41
2022-11-08T18:24:01.918Z,100327.15
2022-11-08T18:26:30.887Z,100328.52
2022-11-08T18:29:02.356Z,100320.91
2022-11-08T18:31:34.754Z,100322.80
2022-11-08T18:34:03.747Z,100317.31
2022-11-08T18:36:32.697Z,100315.42
2022-11-08T18:39:02.741Z,100310.86
2022-11-08T18:41:34.089Z,100310.64
2022-11-08T18:44:03.208Z,100313.34
2022-11-08T18:46:41.789Z,100312.19
2022-11-08T18:49:11.544Z,100309.17
2022-11-08T18:51:46.683Z,100307.81
2022-11-08T18:54:50.556Z,100297.48
2022-11-08T18:57:20.702Z,100288.66
2022-11-08T18:59:50.162Z,100288.25
2022-11-08T19:02:23.492Z,100294.95
2022-11-08T19:04:54.003Z,100301.71
2022-11-08T19:07:27.879Z,100307.02
2022-11-08T19:09:57.042Z,100304.44
2022-11-08T19:12:32.749Z,100307.91
2022-11-08T19:15:05.704Z,100309.13
2022-11-08T19:17:36.457Z,100311.36
2022-11-08T19:20:06.284Z,100308.93
2022-11-08T19:22:35.926Z,100307.98
2022-11-08T19:25:06.461Z,100308.36
2022-11-08T19:27:35.500Z,100311.48
2022-11-08T19:30:05.306Z,100308.06
2022-11-08T19:32:34.463Z,100309.25
2022-11-08T19:35:03.469Z,100308.69
2022-11-08T19:37:33.708Z,100306.36
2022-11-08T19:40:04.484Z,100310.48
2022-11-08T19:42:34.611Z,100314.60
2022-11-08T19:45:03.678Z,100318.36
2022-11-08T19:47:33.968Z,100320.58
2022-11-08T19:50:02.999Z,100319.77
2022-11-08T19:52:33.361Z,100320.00
2022-11-08T19:55:02.424Z,100319.75
2022-11-08T19:57:32.614Z,100322.17
2022-11-08T20:00:02.022Z,100320.48
2022-11-08T20:02:42.497Z,100318.48
2022-11-08T20:05:11.580Z,100321.92
2022-11-08T20:07:40.532Z,100321.73
2022-11-08T20:10:09.900Z,100318.16
2022-11-08T20:12:38.922Z,100318.37
2022-11-08T20:15:08.220Z,100320.85
2022-11-08T20:17:37.115Z,100322.58
2022-11-08T20:20:06.506Z,100324.99
2022-11-08T20:22:35.364Z,100321.99
2022-11-08T20:25:05.123Z,100316.55
2022-11-08T20:27:34.293Z,100321.23
2022-11-08T20:30:03.972Z,100321.40
2022-11-08T20:32:33.963Z,100318.21
2022-11-08T20:35:04.208Z,100318.99
2022-11-08T20:37:33.467Z,100320.98
2022-11-08T20:40:02.532Z,100318.31
2022-11-08T20:42:31.391Z,100315.11
2022-11-08T20:45:00.281Z,100315.68
2022-11-08T20:47:31.932Z,100318.00
2022-11-08T20:50:05.254Z,100320.15
2022-11-08T20:52:34.439Z,100319.54
2022-11-08T20:55:05.346Z,100319.14
2022-11-08T20:57:36.307Z,100326.34
2022-11-08T21:00:13.049Z,100328.45
2022-11-08T21:02:42.944Z,100329.61
2022-11-08T21:05:11.918Z,100326.96
2022-11-08T21:08:01.767Z,100325.52
2022-11-08T21:10:43.054Z,100321.16
2022-11-08T21:13:12.946Z,100319.02
2022-11-08T21:15:47.391Z,100321.98
2022-11-08T21:18:20.527Z,100322.70
2022-11-08T21:20:51.590Z,100324.48
2022-11-08T21:23:20.590Z,100322.13
2022-11-08T21:25:51.503Z,100321.68
2022-11-08T21:28:20.643Z,100321.52
2022-11-08T21:30:50.000Z,100324.18
2022-11-08T21:33:19.490Z,100323.15
2022-11-08T21:35:54.101Z,100324.17
2022-11-08T21:38:24.375Z,100328.36
2022-11-08T21:40:55.006Z,100331.17
2022-11-08T21:43:24.320Z,100330.47
2022-11-08T21:45:53.531Z,100328.91
2022-11-08T21:48:23.518Z,100328.34
2022-11-08T21:50:52.551Z,100330.52
2022-11-08T21:53:21.566Z,100328.64
2022-11-08T21:55:58.121Z,100328.91
2022-11-08T21:58:27.113Z,100328.39
2022-11-08T22:00:56.147Z,100327.75
2022-11-08T22:03:25.153Z,100330.81
2022-11-08T22:05:54.161Z,100325.03
2022-11-08T22:08:23.086Z,100323.14
2022-11-08T22:10:52.105Z,100319.68
2022-11-08T22:13:21.100Z,100322.42
2022-11-08T22:15:50.075Z,100317.66
2022-11-08T22:18:26.392Z,100315.65
2022-11-08T22:21:26.601Z,100316.45
2022-11-08T22:23:56.699Z,100316.05
2022-11-08T22:26:25.817Z,100313.37
2022-11-08T22:28:57.696Z,100314.65
2022-11-08T22:31:27.267Z,100313.02
2022-11-08T22:33:56.207Z,100310.59
2022-11-08T22:36:25.678Z,100308.41
2022-11-08T22:38:55.315Z,100309.73
2022-11-08T22:41:25.284Z,100307.90
2022-11-08T22:43:54.509Z,100310.52
2022-11-08T22:46:23.509Z,100304.95
2022-11-08T22:48:52.442Z,100307.19
2022-11-08T22:51:21.502Z,100307.48
2022-11-08T22:53:50.389Z,100309.52
2022-11-08T22:56:19.365Z,100309.14
2022-11-08T22:58:48.378Z,100308.60
2022-11-08T23:01:17.412Z,100311.35
2022-11-08T23:03:48.027Z,100308.12
2022-11-08T23:06:17.674Z,100300.70
2022-11-08T23:08:47.911Z,100299.48
2022-11-08T23:11:35.781Z,100297.92
2022-11-08T23:14:23.896Z,100294.52
2022-11-08T23:16:52.799Z,100294.44
2022-11-08T23:19:42.945Z,100294.33
2022-11-08T23:22:34.993Z,100292.70
2022-11-08T23:25:05.319Z,100295.35
2022-11-08T23:27:55.775Z,100297.61
2022-11-08T23:30:43.205Z,100296.73
2022-11-08T23:33:12.205Z,100298.61
2022-11-08T23:36:01.054Z,100289.22
2022-11-08T23:38:30.113Z,100283.23
2022-11-08T23:41:18.289Z,100286.29
2022-11-08T23:44:05.769Z,100286.98
2022-11-08T23:46:34.668Z,100286.19
2022-11-08T23:49:04.311Z,100288.26
2022-11-08T23:51:33.622Z,100289.96
2022-11-08T23:54:02.537Z,100290.08
2022-11-08T23:56:31.473Z,100294.14
2022-11-08T23:59:01.180Z,100291.63
